WIDD/BTH METAR and TAF weather

Enter ICAO airport designator
Station Type Date Time Source
WIDD METAR 2021/05/12 02:30 UTC NOAA

WIDD 120230Z 22003KT 9999 SCT014 29/26 Q1011 NOSIG


Station Type Date Time Source
WIDD Decoded METAR 2021/05/12 02:30 UTC NOAA

Station name not available
May 11, 2021 - 10:30 PM EDT / 2021.05.12 0230 UTC
Wind: from the SW (220 degrees) at 3 MPH (3 KT):0
Visibility: greater than 7 mile(s):0
Sky conditions: partly cloudy
Temperature: 84 F (29 C)
Dew Point: 78 F (26 C)
Relative Humidity: 83%
Pressure (altimeter): 29.85 in. Hg (1011 hPa)
ob: WIDD 120230Z 22003KT 9999 SCT014 29/26 Q1011 NOSIG
cycle: 2

Station Type Date Time Source
WIDD TAF 2021/05/11 18:00 UTC NOAA

TAF WIDD 111700Z 1118/1218 00000KT 5000 TSRA FEW013CB BKN014
BECMG 1203/1204 9999 NSW SCT014

Example: see airport list